Time;durP1;ratioP1;P1;durP2;ratioP2;P2;SDS_P1;SDS_P2;PMS_P1;PMS_P2;Temp;Humidity;BMP_temperature;BMP_pressure;BME280_temperature;BME280_humidity;BME280_pressure;Samples;Min_cycle;Max_cycle;Signal;HPM_P1;HPM_P2
2022/03/07 00:00:36;;;;;;;12.68;8.90;;;0.10;99.90;;;;;;5001702;28;20776;-79
2022/03/07 00:03:03;;;;;;;11.50;7.75;;;0.00;99.90;;;;;;4998519;28;20030;-79
2022/03/07 00:05:28;;;;;;;15.30;8.35;;;0.10;99.90;;;;;;4997622;28;20103;-79
2022/03/07 00:07:54;;;;;;;22.27;10.10;;;-0.10;99.90;;;;;;4998026;28;21225;-78
2022/03/07 00:10:20;;;;;;;15.07;9.63;;;0.00;99.90;;;;;;4996170;28;20033;-79
2022/03/07 00:12:51;;;;;;;14.20;9.65;;;0.00;99.90;;;;;;4995947;28;20065;-79
2022/03/07 00:15:17;;;;;;;14.48;8.10;;;0.00;99.90;;;;;;4998166;28;20125;-79
2022/03/07 00:17:43;;;;;;;16.02;8.23;;;-0.30;99.90;;;;;;5012181;28;20112;-79
2022/03/07 00:20:09;;;;;;;13.15;8.10;;;-0.10;99.90;;;;;;4997993;28;20045;-79
2022/03/07 00:22:35;;;;;;;19.88;9.02;;;0.00;99.90;;;;;;5014080;28;20390;-79
2022/03/07 00:25:01;;;;;;;13.98;8.20;;;-0.10;99.90;;;;;;4996326;28;20043;-79
2022/03/07 00:27:26;;;;;;;11.57;7.40;;;-0.20;99.90;;;;;;4996058;28;20585;-79
2022/03/07 00:29:55;;;;;;;15.05;8.48;;;-0.20;99.90;;;;;;5013222;28;20087;-79
2022/03/07 00:32:21;;;;;;;17.15;8.00;;;-0.20;99.90;;;;;;4997910;28;20056;-79
2022/03/07 00:34:49;;;;;;;15.13;7.32;;;-0.10;99.90;;;;;;5014258;28;20034;-79
2022/03/07 00:37:18;;;;;;;10.48;6.75;;;-0.30;99.90;;;;;;4997763;28;20179;-79
2022/03/07 00:39:43;;;;;;;12.30;7.65;;;-0.20;99.90;;;;;;4998087;28;20045;-79
2022/03/07 00:42:09;;;;;;;11.35;7.57;;;-0.20;99.90;;;;;;5013043;28;20456;-79
2022/03/07 00:44:35;;;;;;;16.60;8.48;;;-0.20;99.90;;;;;;5008500;28;20049;-79
2022/03/07 00:47:00;;;;;;;13.90;7.63;;;-0.30;99.90;;;;;;4998117;28;20116;-79
2022/03/07 00:49:26;;;;;;;11.48;7.60;;;-0.30;99.90;;;;;;4996215;28;20033;-79
2022/03/07 00:51:52;;;;;;;13.60;7.43;;;-0.30;99.90;;;;;;5012553;28;20041;-79
2022/03/07 00:54:26;;;;;;;15.35;9.02;;;-0.40;99.90;;;;;;4997510;28;20163;-79
2022/03/07 00:56:52;;;;;;;19.65;9.75;;;-0.40;99.90;;;;;;4997451;28;20073;-79
2022/03/07 00:59:17;;;;;;;16.25;8.50;;;-0.40;99.90;;;;;;5015887;28;20071;-79
2022/03/07 01:01:43;;;;;;;13.57;7.60;;;-0.60;99.90;;;;;;4996838;28;20056;-79
2022/03/07 01:04:09;;;;;;;11.27;7.20;;;-0.60;99.90;;;;;;4997918;28;20389;-79
2022/03/07 01:06:35;;;;;;;10.90;7.10;;;-0.70;99.90;;;;;;5012056;28;20344;-79
2022/03/07 01:09:01;;;;;;;13.05;7.63;;;-0.70;99.90;;;;;;4997677;28;20038;-79
2022/03/07 01:11:26;;;;;;;15.45;7.50;;;-0.70;99.90;;;;;;4997082;28;20362;-79
2022/03/07 01:13:52;;;;;;;14.55;8.00;;;-0.70;99.90;;;;;;4997986;28;20537;-79
2022/03/07 01:16:20;;;;;;;17.98;7.45;;;-0.80;99.90;;;;;;5014195;28;20063;-79
2022/03/07 01:18:47;;;;;;;10.10;6.70;;;-1.00;99.90;;;;;;5011713;28;20447;-79
2022/03/07 01:21:13;;;;;;;13.70;8.20;;;-0.90;99.90;;;;;;4993403;28;20053;-79
2022/03/07 01:23:38;;;;;;;12.32;6.85;;;-1.00;99.90;;;;;;4998313;28;20344;-79
2022/03/07 01:26:04;;;;;;;17.67;9.63;;;-0.90;99.90;;;;;;4991851;28;20126;-79
2022/03/07 01:28:30;;;;;;;10.98;6.70;;;-1.00;99.90;;;;;;4995135;28;20074;-79
2022/03/07 01:30:55;;;;;;;59.72;11.10;;;-1.20;99.90;;;;;;4999532;28;20025;-79
2022/03/07 01:33:36;;;;;;;13.60;6.40;;;-1.20;99.90;;;;;;4992626;28;20076;-79
2022/03/07 01:36:01;;;;;;;12.63;7.88;;;-1.20;99.90;;;;;;4996566;28;20560;-79
2022/03/07 01:38:27;;;;;;;9.15;6.63;;;-1.10;99.90;;;;;;5010306;28;20060;-79
2022/03/07 01:40:53;;;;;;;13.10;7.57;;;-1.10;99.90;;;;;;4999402;28;20077;-80
2022/03/07 01:43:23;;;;;;;13.13;7.30;;;-1.20;99.90;;;;;;4999263;28;20057;-79
2022/03/07 01:45:52;;;;;;;9.90;5.85;;;-1.10;99.90;;;;;;4995457;28;20056;-80
2022/03/07 01:48:18;;;;;;;12.20;6.35;;;-1.20;99.90;;;;;;4997902;28;21539;-79
2022/03/07 01:50:44;;;;;;;9.00;6.05;;;-1.20;99.90;;;;;;5001618;28;20041;-80
2022/03/07 01:53:09;;;;;;;11.00;6.72;;;-1.30;99.90;;;;;;5018843;28;20440;-80
2022/03/07 01:55:35;;;;;;;11.07;7.35;;;-1.30;99.90;;;;;;4999486;28;20128;-79
2022/03/07 01:58:01;;;;;;;12.18;6.35;;;-1.30;99.90;;;;;;4999002;28;20052;-79
2022/03/07 02:00:27;;;;;;;11.60;7.18;;;-1.40;99.90;;;;;;4999182;28;20293;-80
2022/03/07 02:02:54;;;;;;;12.40;6.72;;;-1.40;99.90;;;;;;5013229;28;20037;-79
2022/03/07 02:05:20;;;;;;;13.27;7.28;;;-1.40;99.90;;;;;;5029826;28;20125;-79
2022/03/07 02:07:46;;;;;;;13.32;7.63;;;-1.40;99.90;;;;;;5015088;28;20117;-79
2022/03/07 02:10:12;;;;;;;11.95;6.70;;;-1.40;99.90;;;;;;4995353;28;20091;-80
2022/03/07 02:12:41;;;;;;;11.57;7.03;;;-1.30;99.90;;;;;;4993958;28;20037;-80
2022/03/07 02:15:08;;;;;;;13.00;7.18;;;-1.40;99.90;;;;;;4994486;28;20034;-79
2022/03/07 02:17:34;;;;;;;11.10;7.38;;;-1.30;99.90;;;;;;4997539;28;20072;-79
2022/03/07 02:20:00;;;;;;;8.48;5.93;;;-1.40;99.90;;;;;;5012923;28;20048;-78
2022/03/07 02:22:26;;;;;;;15.60;8.20;;;-1.40;99.90;;;;;;4995688;28;20037;-79
2022/03/07 02:24:52;;;;;;;12.10;7.95;;;-1.40;99.90;;;;;;4997325;28;20037;-79
2022/03/07 02:27:18;;;;;;;12.00;7.75;;;-1.50;99.90;;;;;;4993376;28;20049;-79
2022/03/07 02:29:47;;;;;;;12.65;8.63;;;-1.60;99.90;;;;;;4996614;28;20480;-79
2022/03/07 02:32:13;;;;;;;16.40;8.98;;;-1.70;99.90;;;;;;5013021;28;20034;-79
2022/03/07 02:34:40;;;;;;;15.00;8.02;;;-1.60;99.90;;;;;;4993886;28;20048;-80
2022/03/07 02:37:06;;;;;;;11.75;8.13;;;-1.60;99.90;;;;;;4994238;28;20096;-79
2022/03/07 02:39:34;;;;;;;14.30;9.27;;;-1.60;99.90;;;;;;4996604;28;20037;-79
2022/03/07 02:41:59;;;;;;;15.32;9.35;;;-1.70;99.90;;;;;;4993960;28;20434;-79
2022/03/07 02:44:25;;;;;;;17.10;8.30;;;-1.60;99.90;;;;;;4994564;28;20033;-80
2022/03/07 02:46:51;;;;;;;18.05;9.63;;;-1.60;99.90;;;;;;4995175;28;20077;-79
2022/03/07 02:49:16;;;;;;;21.50;10.15;;;-1.60;99.90;;;;;;4996793;28;20136;-79
2022/03/07 02:51:42;;;;;;;184.50;15.25;;;-1.70;99.90;;;;;;5013418;28;20324;-79
2022/03/07 02:54:08;;;;;;;307.25;17.40;;;-1.80;99.90;;;;;;5012384;28;20037;-79
2022/03/07 02:56:34;;;;;;;14.57;8.43;;;-1.70;99.90;;;;;;4998777;28;20401;-79
2022/03/07 02:59:00;;;;;;;16.10;9.23;;;-1.70;99.90;;;;;;4996080;28;20053;-79
2022/03/07 03:01:26;;;;;;;12.60;8.18;;;-1.70;99.90;;;;;;5011102;28;20034;-78
2022/03/07 03:03:51;;;;;;;16.95;7.35;;;-1.80;99.90;;;;;;4995365;28;20041;-80
2022/03/07 03:06:17;;;;;;;18.73;7.13;;;-1.80;99.90;;;;;;5010079;28;20115;-79
2022/03/07 03:08:43;;;;;;;11.95;7.38;;;-1.80;99.90;;;;;;5010391;28;20427;-80
2022/03/07 03:11:09;;;;;;;15.40;8.57;;;-1.80;99.90;;;;;;5010432;28;20041;-79
2022/03/07 03:13:34;;;;;;;10.32;7.60;;;-1.90;99.90;;;;;;5010211;28;20041;-79
2022/03/07 03:16:00;;;;;;;12.45;7.60;;;-1.90;99.90;;;;;;5010027;28;20152;-79
2022/03/07 03:18:25;;;;;;;10.55;7.18;;;-1.90;99.90;;;;;;5011436;28;20247;-79
2022/03/07 03:20:52;;;;;;;13.00;7.10;;;-2.10;99.90;;;;;;4994624;28;20038;-80
2022/03/07 03:23:19;;;;;;;11.63;7.22;;;-2.00;99.90;;;;;;4996617;28;20030;-79
2022/03/07 03:25:49;;;;;;;10.40;6.63;;;-2.10;99.90;;;;;;4996651;28;20048;-80
2022/03/07 03:28:14;;;;;;;13.57;7.63;;;-2.00;99.90;;;;;;4998710;28;20116;-79
2022/03/07 03:30:45;;;;;;;15.38;9.30;;;-2.10;99.90;;;;;;5005082;28;22055;-79
2022/03/07 03:33:11;;;;;;;18.13;8.02;;;-1.90;99.90;;;;;;4993514;28;20133;-79
2022/03/07 03:35:36;;;;;;;15.07;8.45;;;-2.10;99.90;;;;;;4997767;28;20041;-79
2022/03/07 03:38:08;;;;;;;15.73;8.45;;;-2.20;99.90;;;;;;4993554;28;20040;-79
2022/03/07 03:40:34;;;;;;;11.90;8.20;;;-2.20;99.90;;;;;;4993551;28;20052;-80
2022/03/07 03:43:00;;;;;;;16.02;9.02;;;-2.00;99.90;;;;;;4997209;28;20049;-80
2022/03/07 03:45:26;;;;;;;15.77;8.75;;;-2.30;99.90;;;;;;5012734;28;20057;-79
2022/03/07 03:47:51;;;;;;;14.27;9.40;;;-2.10;99.90;;;;;;4991038;28;20044;-79
2022/03/07 03:50:17;;;;;;;15.68;8.15;;;-2.00;99.90;;;;;;4992912;28;20095;-79
2022/03/07 03:52:43;;;;;;;11.32;7.90;;;-2.20;99.90;;;;;;4994296;28;20071;-79
2022/03/07 03:55:10;;;;;;;13.25;8.23;;;-2.10;99.90;;;;;;4997205;28;20073;-79
2022/03/07 03:57:37;;;;;;;14.45;8.20;;;-2.10;99.90;;;;;;5009687;28;20558;-79
2022/03/07 04:00:06;;;;;;;12.75;8.65;;;-2.20;99.90;;;;;;4997295;28;20057;-79
2022/03/07 04:02:31;;;;;;;15.27;9.48;;;-2.20;99.90;;;;;;5010108;28;20405;-79
2022/03/07 04:04:58;;;;;;;16.08;9.60;;;-2.10;99.90;;;;;;5013870;28;20053;-79
2022/03/07 04:07:24;;;;;;;13.60;8.27;;;-2.10;99.90;;;;;;4997949;28;20037;-79
2022/03/07 04:09:50;;;;;;;17.08;9.15;;;-2.20;99.90;;;;;;5014940;28;20040;-79
2022/03/07 04:12:15;;;;;;;11.30;8.68;;;-2.20;99.90;;;;;;4997255;28;20045;-79
2022/03/07 04:14:41;;;;;;;17.63;9.18;;;-2.30;99.90;;;;;;4994194;28;20382;-79
2022/03/07 04:17:07;;;;;;;18.45;10.85;;;-2.30;99.90;;;;;;4995105;28;20385;-79
2022/03/07 04:19:32;;;;;;;19.75;10.65;;;-2.30;99.90;;;;;;5010693;28;20072;-79
2022/03/07 04:21:58;;;;;;;16.55;9.88;;;-2.30;99.90;;;;;;4995640;28;20325;-79
2022/03/07 04:24:24;;;;;;;19.95;9.57;;;-2.30;99.90;;;;;;4993464;28;20030;-80
2022/03/07 04:26:49;;;;;;;13.82;8.85;;;-2.30;99.90;;;;;;4997689;28;20041;-79
2022/03/07 04:29:15;;;;;;;18.63;10.15;;;-2.30;99.90;;;;;;5012235;28;20037;-80
2022/03/07 04:31:43;;;;;;;13.25;9.85;;;-2.20;99.90;;;;;;4998889;28;20045;-79
2022/03/07 04:34:10;;;;;;;16.15;9.50;;;-2.20;99.90;;;;;;5008611;28;20134;-79
2022/03/07 04:36:38;;;;;;;14.02;9.02;;;-2.30;99.90;;;;;;5009774;28;20048;-79
2022/03/07 04:39:05;;;;;;;17.23;9.52;;;-2.30;99.90;;;;;;5014759;28;20424;-79
2022/03/07 04:41:31;;;;;;;14.98;9.10;;;-2.30;99.90;;;;;;5012741;28;20038;-79
2022/03/07 04:43:57;;;;;;;15.00;8.32;;;-2.30;99.90;;;;;;4996626;28;20055;-79
2022/03/07 04:46:23;;;;;;;14.95;9.32;;;-2.40;99.90;;;;;;4994583;28;20026;-79
2022/03/07 04:48:48;;;;;;;13.48;9.57;;;-2.30;99.90;;;;;;5020070;28;20043;-79
2022/03/07 04:51:14;;;;;;;19.45;9.02;;;-2.30;99.90;;;;;;4998182;28;20052;-79
2022/03/07 04:53:40;;;;;;;16.75;9.52;;;-2.40;99.90;;;;;;4994598;28;20048;-79
2022/03/07 04:56:07;;;;;;;18.08;9.48;;;-2.30;99.90;;;;;;5010714;28;20112;-79
2022/03/07 04:58:33;;;;;;;13.85;8.27;;;-2.50;99.90;;;;;;5010575;28;20095;-79
2022/03/07 05:00:59;;;;;;;12.52;8.68;;;-2.50;99.90;;;;;;5012167;28;20552;-79
2022/03/07 05:03:25;;;;;;;18.77;9.48;;;-2.50;99.90;;;;;;4996871;28;20045;-79
2022/03/07 05:05:50;;;;;;;14.40;8.60;;;-2.40;99.90;;;;;;5010510;28;20152;-79
2022/03/07 05:08:16;;;;;;;17.50;9.13;;;-2.60;99.90;;;;;;4999250;28;20171;-79
2022/03/07 05:10:43;;;;;;;15.05;9.20;;;-2.50;99.90;;;;;;4994672;28;20056;-79
2022/03/07 05:13:09;;;;;;;13.73;8.18;;;-2.50;99.90;;;;;;5011910;28;20067;-79
2022/03/07 05:15:35;;;;;;;15.20;9.18;;;-2.50;99.90;;;;;;4996668;28;20052;-79
2022/03/07 05:18:01;;;;;;;15.02;8.50;;;-2.60;99.90;;;;;;5012738;28;20075;-79
2022/03/07 05:20:27;;;;;;;13.95;8.38;;;-2.60;99.90;;;;;;5011873;28;20037;-79
2022/03/07 05:22:53;;;;;;;14.82;7.75;;;-2.50;99.90;;;;;;5012279;28;20079;-80
2022/03/07 05:25:20;;;;;;;14.90;8.75;;;-2.50;99.90;;;;;;5012713;28;20120;-79
2022/03/07 05:27:47;;;;;;;16.02;8.30;;;-2.50;99.90;;;;;;5000121;28;20030;-79
2022/03/07 05:30:15;;;;;;;15.25;8.77;;;-2.50;99.90;;;;;;5014531;28;20037;-80
2022/03/07 05:32:54;;;;;;;12.25;7.60;;;-2.60;99.90;;;;;;5017044;28;20041;-79
2022/03/07 05:35:22;;;;;;;14.40;7.72;;;-2.70;99.90;;;;;;4997465;28;20068;-79
2022/03/07 05:37:48;;;;;;;11.60;7.68;;;-2.70;99.90;;;;;;5014603;28;20505;-79
2022/03/07 05:40:15;;;;;;;14.10;8.30;;;-2.70;99.90;;;;;;5002390;28;20049;-79
2022/03/07 05:42:41;;;;;;;15.05;8.50;;;-2.70;99.90;;;;;;5017597;28;21044;-80
2022/03/07 05:45:08;;;;;;;18.92;10.13;;;-2.70;99.90;;;;;;5001515;28;20034;-79
2022/03/07 05:47:35;;;;;;;11.05;7.53;;;-2.80;99.90;;;;;;5015164;28;20029;-79
2022/03/07 05:50:01;;;;;;;15.23;8.18;;;-2.70;99.90;;;;;;5015022;28;20033;-79
2022/03/07 05:52:27;;;;;;;13.02;7.95;;;-2.70;99.90;;;;;;5000087;28;20034;-79
2022/03/07 05:54:53;;;;;;;12.75;8.32;;;-2.70;99.90;;;;;;5015208;28;20408;-79
2022/03/07 05:57:19;;;;;;;12.45;7.35;;;-2.70;99.90;;;;;;5017545;28;20119;-79
2022/03/07 05:59:45;;;;;;;11.30;7.47;;;-2.80;99.90;;;;;;5014343;28;20052;-80
2022/03/07 06:02:10;;;;;;;11.48;7.72;;;-2.60;99.90;;;;;;5001716;28;20034;-79
2022/03/07 06:04:36;;;;;;;11.90;7.60;;;-2.60;99.90;;;;;;5000627;28;20036;-79
2022/03/07 06:07:02;;;;;;;12.52;8.25;;;-2.70;99.90;;;;;;5013503;28;20087;-79
2022/03/07 06:09:31;;;;;;;12.93;7.85;;;-2.80;99.90;;;;;;5012893;28;20029;-80
2022/03/07 06:11:56;;;;;;;10.63;7.50;;;-2.70;99.90;;;;;;5001876;28;20065;-79
2022/03/07 06:14:22;;;;;;;11.27;7.10;;;-2.70;99.90;;;;;;5016084;28;20063;-79
2022/03/07 06:16:48;;;;;;;17.70;7.35;;;-2.70;99.90;;;;;;5017875;28;20099;-79
2022/03/07 06:19:13;;;;;;;9.52;6.80;;;-2.90;99.90;;;;;;5016197;28;20041;-79
2022/03/07 06:21:39;;;;;;;11.75;6.35;;;-3.00;99.90;;;;;;5016114;28;20503;-79
2022/03/07 06:24:05;;;;;;;11.32;7.35;;;-3.20;99.90;;;;;;5037449;28;20033;-79
2022/03/07 06:26:35;;;;;;;11.68;7.18;;;-3.00;99.90;;;;;;4997340;28;20424;-79
2022/03/07 06:29:02;;;;;;;11.85;7.00;;;-3.00;99.90;;;;;;5000979;28;20036;-79
2022/03/07 06:31:28;;;;;;;15.15;8.25;;;-2.80;99.90;;;;;;5016323;28;20377;-79
2022/03/07 06:33:53;;;;;;;12.05;7.55;;;-2.90;99.90;;;;;;5001159;28;20120;-79
2022/03/07 06:36:19;;;;;;;10.05;7.43;;;-2.80;99.90;;;;;;5017291;28;20039;-79
2022/03/07 06:38:45;;;;;;;13.38;7.78;;;-2.80;99.90;;;;;;4999029;28;20368;-79
2022/03/07 06:41:10;;;;;;;14.25;8.25;;;-2.70;99.90;;;;;;5016356;28;20042;-79
2022/03/07 06:43:37;;;;;;;14.30;9.13;;;-2.60;99.90;;;;;;4999331;28;20125;-80
2022/03/07 06:46:03;;;;;;;12.02;8.02;;;-2.60;99.90;;;;;;4998266;28;20548;-79
2022/03/07 06:48:29;;;;;;;10.25;8.05;;;-2.50;99.90;;;;;;5015281;28;20046;-79
2022/03/07 06:50:55;;;;;;;13.20;8.52;;;-2.30;99.90;;;;;;5004009;28;20048;-80
2022/03/07 06:53:20;;;;;;;16.13;9.10;;;-2.40;99.90;;;;;;4999600;28;20624;-79
2022/03/07 06:55:46;;;;;;;14.43;8.88;;;-2.30;99.90;;;;;;5017642;28;20076;-80
2022/03/07 06:58:11;;;;;;;12.88;8.30;;;-2.20;99.90;;;;;;5019487;28;20045;-79
2022/03/07 07:00:37;;;;;;;12.95;8.95;;;-2.10;99.90;;;;;;5019728;28;20416;-80
2022/03/07 07:03:04;;;;;;;16.38;9.77;;;-2.00;99.90;;;;;;5015102;28;20536;-79
2022/03/07 07:05:29;;;;;;;20.17;10.00;;;-2.10;99.90;;;;;;5000099;28;20136;-79
2022/03/07 07:07:55;;;;;;;19.77;9.63;;;-2.00;99.90;;;;;;4998675;28;20202;-80
2022/03/07 07:10:22;;;;;;;17.95;10.63;;;-1.70;99.90;;;;;;4997896;28;20106;-79
2022/03/07 07:12:49;;;;;;;15.98;11.20;;;-1.70;99.90;;;;;;5014775;28;20041;-79
2022/03/07 07:15:15;;;;;;;18.13;9.82;;;-1.60;99.90;;;;;;5011876;28;20111;-80
2022/03/07 07:17:42;;;;;;;17.73;9.80;;;-1.70;99.90;;;;;;5014009;28;20111;-79
2022/03/07 07:20:10;;;;;;;15.45;10.50;;;-1.40;99.90;;;;;;5009225;28;20037;-80
2022/03/07 07:22:36;;;;;;;17.35;10.13;;;-1.40;99.90;;;;;;4997543;28;20037;-79
2022/03/07 07:25:06;;;;;;;19.02;10.57;;;-1.30;99.90;;;;;;4997976;28;20500;-79
2022/03/07 07:27:34;;;;;;;17.13;11.20;;;-1.20;99.90;;;;;;5014760;28;20560;-80
2022/03/07 07:30:00;;;;;;;13.38;9.27;;;-1.10;99.90;;;;;;5012470;28;20112;-80
2022/03/07 07:32:28;;;;;;;14.50;10.05;;;-1.10;99.90;;;;;;4999073;28;20483;-79
2022/03/07 07:34:53;;;;;;;15.82;9.93;;;-1.00;99.90;;;;;;4999908;28;20404;-80
2022/03/07 07:37:19;;;;;;;14.27;10.05;;;-0.80;99.90;;;;;;5014863;28;20509;-80
2022/03/07 07:39:45;;;;;;;17.45;10.88;;;-0.70;99.90;;;;;;4997108;28;20378;-80
2022/03/07 07:42:11;;;;;;;17.42;10.93;;;-0.50;99.90;;;;;;4997498;28;20129;-80
2022/03/07 07:44:37;;;;;;;16.75;10.57;;;-0.30;99.90;;;;;;4998974;28;20129;-80
2022/03/07 07:47:04;;;;;;;19.25;11.00;;;-0.30;99.90;;;;;;4995166;28;20036;-80
2022/03/07 07:49:31;;;;;;;14.93;10.13;;;-0.20;99.90;;;;;;5012238;28;20042;-80
2022/03/07 07:51:57;;;;;;;17.45;10.88;;;0.00;99.90;;;;;;5013013;28;20045;-80
2022/03/07 07:54:22;;;;;;;22.63;13.18;;;0.10;99.90;;;;;;5012415;28;20517;-81
2022/03/07 07:56:48;;;;;;;21.65;12.15;;;0.30;99.90;;;;;;4998215;28;20086;-80
2022/03/07 07:59:14;;;;;;;21.83;11.65;;;0.40;99.90;;;;;;4999381;28;20059;-80
2022/03/07 08:01:39;;;;;;;23.67;13.43;;;0.40;99.90;;;;;;4996473;28;20559;-80
2022/03/07 08:04:05;;;;;;;23.65;14.88;;;0.70;99.90;;;;;;4999831;28;20105;-80
2022/03/07 08:06:34;;;;;;;26.70;15.52;;;0.80;99.90;;;;;;5015261;28;20230;-80
2022/03/07 08:09:02;;;;;;;28.88;15.40;;;0.90;99.90;;;;;;4997054;28;20218;-80
2022/03/07 08:11:31;;;;;;;22.10;14.10;;;1.20;99.90;;;;;;4994056;28;20060;-80
2022/03/07 08:13:56;;;;;;;22.35;14.25;;;1.30;99.90;;;;;;4996388;28;20048;-80
2022/03/07 08:16:22;;;;;;;29.67;15.35;;;1.20;99.90;;;;;;5000221;28;20041;-80
2022/03/07 08:18:57;;;;;;;24.27;14.48;;;1.40;99.90;;;;;;4999913;28;20504;-80
2022/03/07 08:21:25;;;;;;;25.23;14.98;;;1.60;99.90;;;;;;4999630;28;20167;-80
2022/03/07 08:24:00;;;;;;;24.98;14.43;;;1.80;99.90;;;;;;5013536;28;20104;-80
2022/03/07 08:26:28;;;;;;;23.00;13.65;;;2.10;99.90;;;;;;4990687;28;20039;-80
2022/03/07 08:28:54;;;;;;;23.85;14.23;;;2.10;99.90;;;;;;5029322;28;20482;-79
2022/03/07 08:31:20;;;;;;;22.95;13.82;;;2.20;99.90;;;;;;5013323;28;20124;-79
2022/03/07 08:33:46;;;;;;;19.02;12.25;;;2.30;99.90;;;;;;5030222;28;20474;-80
2022/03/07 08:36:17;;;;;;;19.10;12.15;;;2.50;99.90;;;;;;4998276;28;20054;-80
2022/03/07 08:38:55;;;;;;;19.00;11.82;;;2.50;99.90;;;;;;4996276;28;20554;-80
2022/03/07 08:41:20;;;;;;;18.05;10.60;;;2.90;99.90;;;;;;4998060;28;20041;-80
2022/03/07 08:43:48;;;;;;;13.05;9.30;;;2.90;99.90;;;;;;4998573;28;20118;-80
2022/03/07 08:46:14;;;;;;;14.35;10.15;;;2.90;99.90;;;;;;4998523;28;20125;-80
2022/03/07 08:48:40;;;;;;;15.45;10.70;;;3.10;99.90;;;;;;4998981;28;20128;-80
2022/03/07 08:51:06;;;;;;;19.33;10.02;;;3.30;99.90;;;;;;4997722;28;20041;-80
2022/03/07 08:53:31;;;;;;;14.40;9.38;;;3.30;99.90;;;;;;4996804;28;20139;-80
2022/03/07 08:55:57;;;;;;;14.90;9.85;;;3.50;99.90;;;;;;4996935;28;20052;-80
2022/03/07 08:58:23;;;;;;;13.68;9.10;;;3.70;99.90;;;;;;5000192;28;20079;-80
2022/03/07 09:00:48;;;;;;;13.73;9.65;;;3.80;99.90;;;;;;5001691;28;20033;-79
2022/03/07 09:03:14;;;;;;;9.85;6.78;;;4.00;99.90;;;;;;5014757;28;20048;-79
2022/03/07 09:05:40;;;;;;;9.15;5.65;;;4.00;99.90;;;;;;5014365;28;20420;-80
2022/03/07 09:08:05;;;;;;;10.13;5.82;;;4.20;99.90;;;;;;5018333;28;20456;-80
2022/03/07 09:10:34;;;;;;;9.70;5.68;;;4.30;99.90;;;;;;5002243;28;20030;-79
2022/03/07 09:13:00;;;;;;;11.63;3.92;;;4.40;99.90;;;;;;5020054;28;20042;-79
2022/03/07 09:15:26;;;;;;;7.90;4.10;;;4.40;99.90;;;;;;5003388;28;20041;-79
2022/03/07 09:17:52;;;;;;;6.78;4.82;;;4.60;99.90;;;;;;5004466;28;20037;-79
2022/03/07 09:20:19;;;;;;;8.30;5.25;;;4.50;99.90;;;;;;5000740;28;20460;-79
2022/03/07 09:22:45;;;;;;;8.73;5.63;;;4.70;99.90;;;;;;4993946;28;20109;-79
2022/03/07 09:25:12;;;;;;;6.75;4.70;;;4.70;99.90;;;;;;5001727;28;20144;-79
2022/03/07 09:27:37;;;;;;;9.57;4.95;;;4.80;99.90;;;;;;5001692;28;20033;-79
2022/03/07 09:30:06;;;;;;;7.47;5.50;;;4.90;99.90;;;;;;5000286;28;20094;-79
2022/03/07 09:32:32;;;;;;;6.78;4.95;;;4.90;99.90;;;;;;4997281;28;20067;-79
2022/03/07 09:34:58;;;;;;;8.70;4.30;;;5.00;99.90;;;;;;5000486;28;20041;-79
2022/03/07 09:37:23;;;;;;;6.78;4.78;;;5.20;99.90;;;;;;5001794;28;20115;-79
2022/03/07 09:39:49;;;;;;;8.98;4.20;;;5.10;99.90;;;;;;4998833;28;20049;-79
2022/03/07 09:42:16;;;;;;;10.20;4.45;;;5.20;99.90;;;;;;5000717;28;20052;-79
2022/03/07 09:44:41;;;;;;;6.38;4.45;;;5.40;99.90;;;;;;5018100;28;20125;-79
2022/03/07 09:47:07;;;;;;;8.18;4.18;;;5.50;99.90;;;;;;4999328;28;20036;-79
2022/03/07 09:49:36;;;;;;;5.50;3.80;;;5.50;99.90;;;;;;5000939;28;20033;-79
2022/03/07 09:52:02;;;;;;;8.68;3.55;;;5.70;99.90;;;;;;5000583;28;20103;-79
2022/03/07 09:54:28;;;;;;;5.05;3.40;;;5.90;99.90;;;;;;4998078;28;20038;-79
2022/03/07 09:56:57;;;;;;;7.25;3.90;;;5.80;99.90;;;;;;5016560;28;20039;-79
2022/03/07 09:59:24;;;;;;;9.82;3.72;;;5.70;99.90;;;;;;5000828;28;20487;-79
2022/03/07 10:02:09;;;;;;;8.15;3.97;;;6.00;99.90;;;;;;5017262;28;20117;-79
2022/03/07 10:04:45;;;;;;;6.82;3.90;;;6.00;99.90;;;;;;5030211;28;20045;-79
2022/03/07 10:07:12;;;;;;;5.05;3.60;;;6.40;99.90;;;;;;5000427;28;20030;-79
2022/03/07 10:09:38;;;;;;;6.32;3.53;;;6.50;99.90;;;;;;5015884;28;20043;-79
2022/03/07 10:12:05;;;;;;;6.13;3.20;;;6.80;99.90;;;;;;4999277;28;20210;-80
2022/03/07 10:14:42;;;;;;;9.50;3.65;;;6.90;99.90;;;;;;4998251;28;20117;-80
2022/03/07 10:17:18;;;;;;;5.22;3.38;;;6.10;99.90;;;;;;4996268;28;20485;-80
2022/03/07 10:19:44;;;;;;;10.13;3.88;;;6.60;99.90;;;;;;5016036;28;20045;-80
2022/03/07 10:22:14;;;;;;;7.53;3.88;;;6.50;99.90;;;;;;5002251;28;20077;-79
2022/03/07 10:24:40;;;;;;;9.80;4.15;;;6.80;99.90;;;;;;5014773;28;20404;-80
2022/03/07 10:27:06;;;;;;;5.32;3.38;;;7.10;99.90;;;;;;5016446;28;20029;-80
2022/03/07 10:29:32;;;;;;;8.60;3.50;;;7.60;99.90;;;;;;4996962;28;20069;-80
2022/03/07 10:31:59;;;;;;;4.55;3.20;;;7.80;99.90;;;;;;5016474;28;20053;-80
2022/03/07 10:34:26;;;;;;;5.88;3.80;;;8.10;99.90;;;;;;4996358;28;20080;-80
2022/03/07 10:36:53;;;;;;;6.05;3.08;;;8.30;99.90;;;;;;4999507;28;20665;-80
2022/03/07 10:39:24;;;;;;;8.25;3.03;;;8.50;95.10;;;;;;5000152;28;20094;-80
2022/03/07 10:41:50;;;;;;;4.28;2.58;;;8.40;48.90;;;;;;5013361;28;20117;-80
2022/03/07 10:44:32;;;;;;;5.75;3.30;;;7.30;1.00;;;;;;5001002;28;20054;-80
2022/03/07 10:47:18;;;;;;;5.22;2.92;;;7.20;28.00;;;;;;5015083;28;20149;-80
2022/03/07 10:49:49;;;;;;;4.97;3.30;;;7.30;13.90;;;;;;5011653;28;20029;-80
2022/03/07 10:52:18;;;;;;;5.10;2.80;;;7.30;95.20;;;;;;4997184;28;20060;-80
2022/03/07 10:54:44;;;;;;;6.20;3.25;;;7.40;81.10;;;;;;4999034;28;20034;-80
2022/03/07 10:57:13;;;;;;;5.20;2.70;;;7.80;91.30;;;;;;4997138;28;20602;-80
2022/03/07 10:59:39;;;;;;;7.00;3.10;;;7.50;92.40;;;;;;4998757;28;20041;-80
2022/03/07 11:02:16;;;;;;;4.45;2.72;;;7.40;99.90;;;;;;4998416;28;20322;-80
2022/03/07 11:04:45;;;;;;;6.00;3.40;;;7.60;49.10;;;;;;5029358;28;20115;-80
2022/03/07 11:07:12;;;;;;;9.75;4.30;;;7.30;15.80;;;;;;4997175;28;20346;-80
2022/03/07 11:09:41;;;;;;;6.50;3.58;;;7.40;49.60;;;;;;4999938;28;20037;-80
2022/03/07 11:12:14;;;;;;;6.45;3.10;;;7.50;65.00;;;;;;5013378;28;20033;-80
2022/03/07 11:14:41;;;;;;;6.75;3.38;;;7.20;1.00;;;;;;4999963;28;20187;-80
2022/03/07 11:17:17;;;;;;;5.40;3.33;;;7.60;2.70;;;;;;4998546;28;20408;-79
2022/03/07 11:19:46;;;;;;;8.25;3.30;;;8.30;30.50;;;;;;5010072;28;20033;-79
2022/03/07 11:22:12;;;;;;;8.23;3.97;;;8.10;1.00;;;;;;4995719;28;20034;-80
2022/03/07 11:24:39;;;;;;;6.45;2.90;;;7.80;1.00;;;;;;5015132;28;20446;-79
2022/03/07 11:27:08;;;;;;;5.60;2.75;;;8.60;1.00;;;;;;5014628;28;20203;-80
2022/03/07 11:29:41;;;;;;;5.15;3.03;;;9.10;99.90;;;;;;4998750;28;20124;-80
2022/03/07 11:32:16;;;;;;;5.15;2.88;;;9.50;1.00;;;;;;5013928;28;20041;-80
2022/03/07 11:34:59;;;;;;;5.65;2.67;;;9.50;99.90;;;;;;4994093;28;20128;-80
2022/03/07 11:37:31;;;;;;;3.58;2.35;;;9.90;99.90;;;;;;4995412;28;20140;-80
2022/03/07 11:39:58;;;;;;;7.65;2.78;;;9.90;99.90;;;;;;4998757;28;20049;-80
2022/03/07 11:42:45;;;;;;;7.13;4.07;;;9.80;1.00;;;;;;5013996;28;20436;-80
2022/03/07 11:45:18;;;;;;;3.75;2.55;;;9.10;99.90;;;;;;5013505;28;20081;-80
2022/03/07 11:47:45;;;;;;;6.40;2.83;;;8.70;1.00;;;;;;5011554;28;20630;-80
2022/03/07 11:50:11;;;;;;;5.18;2.50;;;8.90;99.90;;;;;;5012304;28;20026;-80
2022/03/07 11:52:37;;;;;;;6.40;2.40;;;9.20;99.90;;;;;;5005234;28;20048;-80
2022/03/07 11:55:10;;;;;;;5.35;2.33;;;9.10;99.90;;;;;;5011114;28;20034;-80
2022/03/07 11:57:45;;;;;;;5.18;2.60;;;9.80;1.00;;;;;;4999142;28;20445;-80
2022/03/07 12:00:24;;;;;;;7.38;2.53;;;9.60;1.00;;;;;;5010744;28;20093;-80
2022/03/07 12:02:58;;;;;;;3.40;2.05;;;9.70;99.90;;;;;;4997778;28;20045;-80
2022/03/07 12:05:28;;;;;;;4.30;2.22;;;10.00;99.90;;;;;;5011858;28;20384;-80
2022/03/07 12:08:19;;;;;;;3.05;1.98;;;10.00;91.10;;;;;;5000150;28;20050;-80
2022/03/07 12:11:02;;;;;;;6.00;1.73;;;10.30;1.00;;;;;;5012971;28;20033;-80
2022/03/07 12:13:33;;;;;;;3.10;1.85;;;9.80;1.00;;;;;;4996713;28;20402;-80
2022/03/07 12:15:59;;;;;;;3.78;2.05;;;9.60;99.90;;;;;;5013811;28;20079;-80
2022/03/07 12:18:28;;;;;;;4.10;2.08;;;9.30;99.90;;;;;;4997804;28;20159;-80
2022/03/07 12:20:58;;;;;;;4.97;2.17;;;9.90;99.90;;;;;;5011005;28;20045;-80
2022/03/07 12:23:27;;;;;;;5.03;2.30;;;10.00;99.90;;;;;;5011020;28;20116;-80
2022/03/07 12:26:10;;;;;;;3.92;2.25;;;9.70;99.90;;;;;;5015546;28;20040;-80
2022/03/07 12:28:43;;;;;;;3.78;2.08;;;9.70;62.20;;;;;;5013423;28;20425;-80
2022/03/07 12:31:09;;;;;;;4.38;2.10;;;9.30;99.90;;;;;;5031556;28;20174;-80
2022/03/07 12:33:35;;;;;;;3.85;2.42;;;10.20;99.90;;;;;;4994295;28;20163;-80
2022/03/07 12:36:13;;;;;;;3.72;2.13;;;10.10;99.90;;;;;;5000004;28;20202;-80
2022/03/07 12:39:00;;;;;;;3.60;1.98;;;10.70;99.90;;;;;;4998746;28;20030;-80
2022/03/07 12:41:33;;;;;;;3.28;1.73;;;10.30;90.10;;;;;;4996119;28;20045;-80
2022/03/07 12:44:02;;;;;;;3.60;2.17;;;9.50;1.00;;;;;;5015394;28;20457;-80